sensor_id;sensor_type;location;lat;lon;timestamp;P1;durP1;ratioP1;P2;durP2;ratioP2
40204;SDS011;26963;42.666;23.366;2022-12-07T00:01:08;30.38;;;19.95;;
40204;SDS011;26963;42.666;23.366;2022-12-07T00:03:36;29.83;;;19.53;;
40204;SDS011;26963;42.666;23.366;2022-12-07T00:06:03;37.65;;;21.85;;
40204;SDS011;26963;42.666;23.366;2022-12-07T00:08:31;32.97;;;21.83;;
40204;SDS011;26963;42.666;23.366;2022-12-07T00:11:10;34.13;;;21.90;;
40204;SDS011;26963;42.666;23.366;2022-12-07T00:13:37;31.92;;;19.88;;
40204;SDS011;26963;42.666;23.366;2022-12-07T00:16:08;31.77;;;21.65;;
40204;SDS011;26963;42.666;23.366;2022-12-07T00:18:38;33.83;;;21.42;;
40204;SDS011;26963;42.666;23.366;2022-12-07T00:21:07;32.40;;;21.42;;
40204;SDS011;26963;42.666;23.366;2022-12-07T00:23:35;32.17;;;21.20;;
40204;SDS011;26963;42.666;23.366;2022-12-07T00:26:10;32.00;;;21.65;;
40204;SDS011;26963;42.666;23.366;2022-12-07T00:28:37;32.33;;;22.55;;
40204;SDS011;26963;42.666;23.366;2022-12-07T00:31:05;34.60;;;21.10;;
40204;SDS011;26963;42.666;23.366;2022-12-07T00:33:33;35.70;;;22.60;;
40204;SDS011;26963;42.666;23.366;2022-12-07T00:35:59;31.38;;;21.90;;
40204;SDS011;26963;42.666;23.366;2022-12-07T00:38:27;29.25;;;21.02;;
40204;SDS011;26963;42.666;23.366;2022-12-07T00:40:55;34.90;;;21.08;;
40204;SDS011;26963;42.666;23.366;2022-12-07T00:43:24;35.75;;;20.20;;
40204;SDS011;26963;42.666;23.366;2022-12-07T00:45:51;31.77;;;20.95;;
40204;SDS011;26963;42.666;23.366;2022-12-07T00:48:16;28.80;;;20.27;;
40204;SDS011;26963;42.666;23.366;2022-12-07T00:50:42;37.03;;;22.23;;
40204;SDS011;26963;42.666;23.366;2022-12-07T00:53:08;30.42;;;20.73;;
40204;SDS011;26963;42.666;23.366;2022-12-07T00:55:34;29.27;;;19.80;;
40204;SDS011;26963;42.666;23.366;2022-12-07T00:58:00;29.73;;;19.90;;
40204;SDS011;26963;42.666;23.366;2022-12-07T01:00:25;32.33;;;21.23;;
40204;SDS011;26963;42.666;23.366;2022-12-07T01:02:51;29.05;;;19.85;;
40204;SDS011;26963;42.666;23.366;2022-12-07T01:05:17;31.85;;;21.10;;
40204;SDS011;26963;42.666;23.366;2022-12-07T01:07:43;31.02;;;20.60;;
40204;SDS011;26963;42.666;23.366;2022-12-07T01:10:09;31.98;;;21.23;;
40204;SDS011;26963;42.666;23.366;2022-12-07T01:12:35;29.13;;;19.95;;
40204;SDS011;26963;42.666;23.366;2022-12-07T01:15:00;32.47;;;20.48;;
40204;SDS011;26963;42.666;23.366;2022-12-07T01:17:26;30.15;;;21.08;;
40204;SDS011;26963;42.666;23.366;2022-12-07T01:19:53;27.90;;;20.25;;
40204;SDS011;26963;42.666;23.366;2022-12-07T01:22:18;36.95;;;20.75;;
40204;SDS011;26963;42.666;23.366;2022-12-07T01:24:44;30.88;;;20.38;;
40204;SDS011;26963;42.666;23.366;2022-12-07T01:27:11;29.65;;;20.60;;
40204;SDS011;26963;42.666;23.366;2022-12-07T01:29:37;28.73;;;20.92;;
40204;SDS011;26963;42.666;23.366;2022-12-07T01:32:03;31.25;;;20.08;;
40204;SDS011;26963;42.666;23.366;2022-12-07T01:34:29;30.38;;;20.80;;
40204;SDS011;26963;42.666;23.366;2022-12-07T01:36:54;30.48;;;19.65;;
40204;SDS011;26963;42.666;23.366;2022-12-07T01:39:20;36.05;;;21.35;;
40204;SDS011;26963;42.666;23.366;2022-12-07T01:41:46;31.35;;;21.67;;
40204;SDS011;26963;42.666;23.366;2022-12-07T01:46:40;33.28;;;21.77;;
40204;SDS011;26963;42.666;23.366;2022-12-07T01:49:16;39.78;;;25.75;;
40204;SDS011;26963;42.666;23.366;2022-12-07T01:51:46;36.20;;;23.75;;
40204;SDS011;26963;42.666;23.366;2022-12-07T01:54:13;42.47;;;27.77;;
40204;SDS011;26963;42.666;23.366;2022-12-07T01:56:42;38.38;;;27.58;;
40204;SDS011;26963;42.666;23.366;2022-12-07T01:59:13;41.08;;;27.67;;
40204;SDS011;26963;42.666;23.366;2022-12-07T02:01:41;37.28;;;26.55;;
40204;SDS011;26963;42.666;23.366;2022-12-07T02:04:07;35.08;;;25.05;;
40204;SDS011;26963;42.666;23.366;2022-12-07T02:06:33;34.22;;;23.85;;
40204;SDS011;26963;42.666;23.366;2022-12-07T02:09:01;39.25;;;24.63;;
40204;SDS011;26963;42.666;23.366;2022-12-07T02:11:27;41.85;;;26.67;;
40204;SDS011;26963;42.666;23.366;2022-12-07T02:13:53;39.55;;;26.33;;
40204;SDS011;26963;42.666;23.366;2022-12-07T02:16:34;40.35;;;24.88;;
40204;SDS011;26963;42.666;23.366;2022-12-07T02:30:04;47.30;;;30.60;;
40204;SDS011;26963;42.666;23.366;2022-12-07T02:32:44;37.78;;;26.38;;
40204;SDS011;26963;42.666;23.366;2022-12-07T02:35:12;43.00;;;28.75;;
40204;SDS011;26963;42.666;23.366;2022-12-07T02:43:12;52.70;;;34.17;;
40204;SDS011;26963;42.666;23.366;2022-12-07T02:45:44;47.17;;;32.50;;
40204;SDS011;26963;42.666;23.366;2022-12-07T02:48:13;47.72;;;30.08;;
40204;SDS011;26963;42.666;23.366;2022-12-07T02:50:49;42.08;;;32.83;;
40204;SDS011;26963;42.666;23.366;2022-12-07T02:53:32;43.40;;;28.30;;
40204;SDS011;26963;42.666;23.366;2022-12-07T02:56:05;44.72;;;31.25;;
40204;SDS011;26963;42.666;23.366;2022-12-07T02:58:35;48.17;;;32.75;;
40204;SDS011;26963;42.666;23.366;2022-12-07T03:06:51;45.78;;;30.92;;
40204;SDS011;26963;42.666;23.366;2022-12-07T03:09:25;47.05;;;32.03;;
40204;SDS011;26963;42.666;23.366;2022-12-07T03:12:01;46.80;;;32.33;;
40204;SDS011;26963;42.666;23.366;2022-12-07T03:14:35;41.65;;;29.40;;
40204;SDS011;26963;42.666;23.366;2022-12-07T03:17:10;43.80;;;31.63;;
40204;SDS011;26963;42.666;23.366;2022-12-07T03:19:49;42.03;;;29.23;;
40204;SDS011;26963;42.666;23.366;2022-12-07T03:22:18;49.92;;;30.48;;
40204;SDS011;26963;42.666;23.366;2022-12-07T03:24:47;46.33;;;31.92;;
40204;SDS011;26963;42.666;23.366;2022-12-07T03:27:28;43.42;;;31.20;;
40204;SDS011;26963;42.666;23.366;2022-12-07T03:30:17;47.42;;;32.40;;
40204;SDS011;26963;42.666;23.366;2022-12-07T03:35:31;46.60;;;30.45;;
40204;SDS011;26963;42.666;23.366;2022-12-07T03:38:08;47.60;;;31.65;;
40204;SDS011;26963;42.666;23.366;2022-12-07T03:40:50;47.55;;;30.85;;
40204;SDS011;26963;42.666;23.366;2022-12-07T03:43:22;45.67;;;30.30;;
40204;SDS011;26963;42.666;23.366;2022-12-07T03:46:35;48.17;;;30.92;;
40204;SDS011;26963;42.666;23.366;2022-12-07T03:48:46;43.28;;;31.63;;
40204;SDS011;26963;42.666;23.366;2022-12-07T03:53:44;45.17;;;30.20;;
40204;SDS011;26963;42.666;23.366;2022-12-07T03:56:16;43.63;;;30.80;;
40204;SDS011;26963;42.666;23.366;2022-12-07T03:58:42;43.00;;;30.75;;
40204;SDS011;26963;42.666;23.366;2022-12-07T04:01:08;46.60;;;30.88;;
40204;SDS011;26963;42.666;23.366;2022-12-07T04:03:34;41.22;;;27.38;;
40204;SDS011;26963;42.666;23.366;2022-12-07T04:06:00;37.20;;;26.98;;
40204;SDS011;26963;42.666;23.366;2022-12-07T04:08:25;38.80;;;26.38;;
40204;SDS011;26963;42.666;23.366;2022-12-07T04:10:51;39.72;;;27.02;;
40204;SDS011;26963;42.666;23.366;2022-12-07T04:13:16;37.17;;;25.98;;
40204;SDS011;26963;42.666;23.366;2022-12-07T04:15:42;44.38;;;28.02;;
40204;SDS011;26963;42.666;23.366;2022-12-07T04:18:07;39.90;;;27.40;;
40204;SDS011;26963;42.666;23.366;2022-12-07T04:20:33;38.42;;;24.38;;
40204;SDS011;26963;42.666;23.366;2022-12-07T04:22:59;41.25;;;27.52;;
40204;SDS011;26963;42.666;23.366;2022-12-07T04:25:24;36.40;;;26.73;;
40204;SDS011;26963;42.666;23.366;2022-12-07T04:27:50;39.22;;;27.27;;
40204;SDS011;26963;42.666;23.366;2022-12-07T04:30:15;38.55;;;27.13;;
40204;SDS011;26963;42.666;23.366;2022-12-07T04:32:41;38.90;;;25.65;;
40204;SDS011;26963;42.666;23.366;2022-12-07T04:35:06;34.38;;;24.63;;
40204;SDS011;26963;42.666;23.366;2022-12-07T04:37:32;40.75;;;24.98;;
40204;SDS011;26963;42.666;23.366;2022-12-07T04:39:58;34.80;;;23.98;;
40204;SDS011;26963;42.666;23.366;2022-12-07T04:42:23;39.92;;;24.23;;
40204;SDS011;26963;42.666;23.366;2022-12-07T04:44:49;38.85;;;25.75;;
40204;SDS011;26963;42.666;23.366;2022-12-07T04:47:16;37.33;;;25.02;;
40204;SDS011;26963;42.666;23.366;2022-12-07T04:49:41;36.42;;;24.83;;
40204;SDS011;26963;42.666;23.366;2022-12-07T04:52:07;36.15;;;25.15;;
40204;SDS011;26963;42.666;23.366;2022-12-07T04:54:32;37.17;;;25.27;;
40204;SDS011;26963;42.666;23.366;2022-12-07T04:56:58;39.30;;;27.55;;
40204;SDS011;26963;42.666;23.366;2022-12-07T04:59:23;45.45;;;30.95;;
40204;SDS011;26963;42.666;23.366;2022-12-07T05:01:49;38.97;;;27.63;;
40204;SDS011;26963;42.666;23.366;2022-12-07T05:04:14;38.47;;;26.67;;
40204;SDS011;26963;42.666;23.366;2022-12-07T05:06:41;37.83;;;27.23;;
40204;SDS011;26963;42.666;23.366;2022-12-07T05:09:07;43.55;;;29.33;;
40204;SDS011;26963;42.666;23.366;2022-12-07T05:11:32;40.65;;;27.00;;
40204;SDS011;26963;42.666;23.366;2022-12-07T05:14:09;38.88;;;26.17;;
40204;SDS011;26963;42.666;23.366;2022-12-07T05:16:39;39.58;;;27.38;;
40204;SDS011;26963;42.666;23.366;2022-12-07T05:19:05;37.85;;;26.67;;
40204;SDS011;26963;42.666;23.366;2022-12-07T05:21:32;40.55;;;26.17;;
40204;SDS011;26963;42.666;23.366;2022-12-07T05:23:58;41.38;;;28.90;;
40204;SDS011;26963;42.666;23.366;2022-12-07T05:26:23;47.97;;;28.80;;
40204;SDS011;26963;42.666;23.366;2022-12-07T05:28:52;46.58;;;29.85;;
40204;SDS011;26963;42.666;23.366;2022-12-07T05:31:19;40.17;;;28.13;;
40204;SDS011;26963;42.666;23.366;2022-12-07T05:33:45;39.80;;;28.98;;
40204;SDS011;26963;42.666;23.366;2022-12-07T05:36:10;42.88;;;28.88;;
40204;SDS011;26963;42.666;23.366;2022-12-07T05:38:36;42.63;;;29.05;;
40204;SDS011;26963;42.666;23.366;2022-12-07T05:41:02;46.15;;;29.30;;
40204;SDS011;26963;42.666;23.366;2022-12-07T05:43:29;42.92;;;29.80;;
40204;SDS011;26963;42.666;23.366;2022-12-07T05:45:55;41.22;;;27.00;;
40204;SDS011;26963;42.666;23.366;2022-12-07T05:48:21;38.25;;;27.48;;
40204;SDS011;26963;42.666;23.366;2022-12-07T05:50:48;52.25;;;37.58;;
40204;SDS011;26963;42.666;23.366;2022-12-07T05:53:14;44.78;;;30.00;;
40204;SDS011;26963;42.666;23.366;2022-12-07T05:55:40;44.92;;;28.77;;
40204;SDS011;26963;42.666;23.366;2022-12-07T05:58:05;39.90;;;28.20;;
40204;SDS011;26963;42.666;23.366;2022-12-07T06:00:49;41.83;;;27.52;;
40204;SDS011;26963;42.666;23.366;2022-12-07T06:03:15;41.13;;;26.95;;
40204;SDS011;26963;42.666;23.366;2022-12-07T06:05:41;39.40;;;27.17;;
40204;SDS011;26963;42.666;23.366;2022-12-07T06:08:06;47.95;;;28.05;;
40204;SDS011;26963;42.666;23.366;2022-12-07T06:10:32;39.53;;;27.27;;
40204;SDS011;26963;42.666;23.366;2022-12-07T06:12:58;42.17;;;27.10;;
40204;SDS011;26963;42.666;23.366;2022-12-07T06:15:24;42.97;;;27.17;;
40204;SDS011;26963;42.666;23.366;2022-12-07T06:17:49;41.40;;;26.90;;
40204;SDS011;26963;42.666;23.366;2022-12-07T06:20:15;37.05;;;24.75;;
40204;SDS011;26963;42.666;23.366;2022-12-07T06:22:41;37.75;;;24.45;;
40204;SDS011;26963;42.666;23.366;2022-12-07T06:25:06;36.47;;;24.92;;
40204;SDS011;26963;42.666;23.366;2022-12-07T06:27:32;45.05;;;27.08;;
40204;SDS011;26963;42.666;23.366;2022-12-07T06:29:58;45.58;;;28.33;;
40204;SDS011;26963;42.666;23.366;2022-12-07T06:32:24;41.63;;;28.58;;
40204;SDS011;26963;42.666;23.366;2022-12-07T06:34:50;50.33;;;28.33;;
40204;SDS011;26963;42.666;23.366;2022-12-07T06:37:16;41.40;;;28.05;;
40204;SDS011;26963;42.666;23.366;2022-12-07T06:39:41;45.75;;;27.05;;
40204;SDS011;26963;42.666;23.366;2022-12-07T06:42:07;45.92;;;27.63;;
40204;SDS011;26963;42.666;23.366;2022-12-07T06:44:32;39.83;;;28.83;;
40204;SDS011;26963;42.666;23.366;2022-12-07T06:46:58;42.28;;;27.52;;
40204;SDS011;26963;42.666;23.366;2022-12-07T06:49:24;42.33;;;26.67;;
40204;SDS011;26963;42.666;23.366;2022-12-07T06:51:49;37.33;;;25.27;;
40204;SDS011;26963;42.666;23.366;2022-12-07T06:54:15;40.05;;;25.40;;
40204;SDS011;26963;42.666;23.366;2022-12-07T06:56:41;38.85;;;25.42;;
40204;SDS011;26963;42.666;23.366;2022-12-07T06:59:07;45.08;;;26.38;;
40204;SDS011;26963;42.666;23.366;2022-12-07T07:01:33;41.92;;;25.33;;
40204;SDS011;26963;42.666;23.366;2022-12-07T07:03:59;41.78;;;26.95;;
40204;SDS011;26963;42.666;23.366;2022-12-07T07:06:25;41.17;;;27.02;;
40204;SDS011;26963;42.666;23.366;2022-12-07T07:08:51;43.92;;;28.40;;
40204;SDS011;26963;42.666;23.366;2022-12-07T07:11:16;45.75;;;30.23;;
40204;SDS011;26963;42.666;23.366;2022-12-07T07:13:42;43.40;;;31.20;;
40204;SDS011;26963;42.666;23.366;2022-12-07T07:16:07;47.55;;;31.05;;
40204;SDS011;26963;42.666;23.366;2022-12-07T07:18:33;44.90;;;31.98;;
40204;SDS011;26963;42.666;23.366;2022-12-07T07:20:59;43.13;;;30.13;;
40204;SDS011;26963;42.666;23.366;2022-12-07T07:23:26;52.22;;;35.15;;
40204;SDS011;26963;42.666;23.366;2022-12-07T07:25:51;47.83;;;29.75;;
40204;SDS011;26963;42.666;23.366;2022-12-07T07:28:17;49.00;;;29.65;;
40204;SDS011;26963;42.666;23.366;2022-12-07T07:30:43;45.30;;;29.15;;
40204;SDS011;26963;42.666;23.366;2022-12-07T07:33:09;46.83;;;28.05;;
40204;SDS011;26963;42.666;23.366;2022-12-07T07:35:35;43.28;;;27.73;;
40204;SDS011;26963;42.666;23.366;2022-12-07T07:38:01;47.30;;;27.42;;
40204;SDS011;26963;42.666;23.366;2022-12-07T07:40:27;51.25;;;27.60;;
40204;SDS011;26963;42.666;23.366;2022-12-07T07:42:56;44.40;;;26.20;;
40204;SDS011;26963;42.666;23.366;2022-12-07T07:45:23;43.22;;;27.00;;
40204;SDS011;26963;42.666;23.366;2022-12-07T07:47:50;46.50;;;26.30;;
40204;SDS011;26963;42.666;23.366;2022-12-07T07:50:16;37.17;;;25.65;;
40204;SDS011;26963;42.666;23.366;2022-12-07T07:52:42;39.20;;;24.63;;
40204;SDS011;26963;42.666;23.366;2022-12-07T07:55:08;35.33;;;25.42;;
40204;SDS011;26963;42.666;23.366;2022-12-07T07:57:35;42.97;;;25.50;;
40204;SDS011;26963;42.666;23.366;2022-12-07T08:00:02;44.30;;;27.35;;
40204;SDS011;26963;42.666;23.366;2022-12-07T08:02:33;43.55;;;29.38;;
40204;SDS011;26963;42.666;23.366;2022-12-07T08:04:58;42.58;;;29.85;;
40204;SDS011;26963;42.666;23.366;2022-12-07T08:07:24;45.45;;;30.50;;
40204;SDS011;26963;42.666;23.366;2022-12-07T08:09:49;39.17;;;27.25;;
40204;SDS011;26963;42.666;23.366;2022-12-07T08:12:15;43.33;;;28.38;;
40204;SDS011;26963;42.666;23.366;2022-12-07T08:14:40;45.65;;;31.88;;
40204;SDS011;26963;42.666;23.366;2022-12-07T08:17:06;53.17;;;35.85;;
40204;SDS011;26963;42.666;23.366;2022-12-07T08:19:32;57.20;;;37.08;;
40204;SDS011;26963;42.666;23.366;2022-12-07T08:21:58;57.00;;;35.78;;
40204;SDS011;26963;42.666;23.366;2022-12-07T08:24:23;55.58;;;36.30;;
40204;SDS011;26963;42.666;23.366;2022-12-07T08:26:50;51.80;;;36.42;;
40204;SDS011;26963;42.666;23.366;2022-12-07T08:29:16;60.85;;;36.60;;
40204;SDS011;26963;42.666;23.366;2022-12-07T08:31:41;59.25;;;38.75;;
40204;SDS011;26963;42.666;23.366;2022-12-07T08:34:07;60.38;;;37.95;;
40204;SDS011;26963;42.666;23.366;2022-12-07T08:36:36;55.50;;;36.90;;
40204;SDS011;26963;42.666;23.366;2022-12-07T08:39:02;57.58;;;36.80;;
40204;SDS011;26963;42.666;23.366;2022-12-07T08:41:28;52.97;;;34.45;;
40204;SDS011;26963;42.666;23.366;2022-12-07T08:43:53;59.83;;;34.97;;
40204;SDS011;26963;42.666;23.366;2022-12-07T08:46:21;50.47;;;34.75;;
40204;SDS011;26963;42.666;23.366;2022-12-07T08:51:15;49.60;;;37.22;;
40204;SDS011;26963;42.666;23.366;2022-12-07T08:53:41;51.72;;;36.42;;
40204;SDS011;26963;42.666;23.366;2022-12-07T08:56:08;53.10;;;36.58;;
40204;SDS011;26963;42.666;23.366;2022-12-07T08:58:34;53.72;;;33.83;;
40204;SDS011;26963;42.666;23.366;2022-12-07T09:01:01;49.22;;;33.80;;
40204;SDS011;26963;42.666;23.366;2022-12-07T09:03:27;52.50;;;34.45;;
40204;SDS011;26963;42.666;23.366;2022-12-07T09:05:53;42.83;;;31.13;;
40204;SDS011;26963;42.666;23.366;2022-12-07T09:08:19;50.88;;;31.50;;
40204;SDS011;26963;42.666;23.366;2022-12-07T09:10:46;47.85;;;31.98;;
40204;SDS011;26963;42.666;23.366;2022-12-07T09:13:12;48.42;;;32.20;;
40204;SDS011;26963;42.666;23.366;2022-12-07T09:15:38;49.58;;;32.80;;
40204;SDS011;26963;42.666;23.366;2022-12-07T09:18:04;47.63;;;31.25;;
40204;SDS011;26963;42.666;23.366;2022-12-07T09:20:30;44.25;;;29.52;;
40204;SDS011;26963;42.666;23.366;2022-12-07T09:22:56;50.50;;;30.77;;
40204;SDS011;26963;42.666;23.366;2022-12-07T09:25:21;50.22;;;29.05;;
40204;SDS011;26963;42.666;23.366;2022-12-07T09:27:47;44.20;;;28.33;;
40204;SDS011;26963;42.666;23.366;2022-12-07T09:30:13;49.15;;;29.98;;
40204;SDS011;26963;42.666;23.366;2022-12-07T09:32:38;46.38;;;29.38;;
40204;SDS011;26963;42.666;23.366;2022-12-07T09:35:04;50.05;;;29.45;;
40204;SDS011;26963;42.666;23.366;2022-12-07T09:37:30;45.55;;;31.17;;
40204;SDS011;26963;42.666;23.366;2022-12-07T09:40:00;53.30;;;30.80;;
40204;SDS011;26963;42.666;23.366;2022-12-07T09:42:39;46.20;;;30.83;;
40204;SDS011;26963;42.666;23.366;2022-12-07T09:45:12;48.15;;;31.23;;
40204;SDS011;26963;42.666;23.366;2022-12-07T09:50:12;49.95;;;29.98;;
40204;SDS011;26963;42.666;23.366;2022-12-07T09:52:41;53.17;;;30.92;;
40204;SDS011;26963;42.666;23.366;2022-12-07T09:55:11;49.35;;;29.33;;
40204;SDS011;26963;42.666;23.366;2022-12-07T09:57:38;48.22;;;31.38;;
40204;SDS011;26963;42.666;23.366;2022-12-07T10:00:07;48.45;;;31.08;;
40204;SDS011;26963;42.666;23.366;2022-12-07T10:02:42;51.72;;;32.17;;
40204;SDS011;26963;42.666;23.366;2022-12-07T10:05:25;45.22;;;31.50;;
40204;SDS011;26963;42.666;23.366;2022-12-07T10:07:55;50.22;;;31.27;;
40204;SDS011;26963;42.666;23.366;2022-12-07T10:10:25;47.97;;;30.17;;
40204;SDS011;26963;42.666;23.366;2022-12-07T10:12:53;51.35;;;32.13;;
40204;SDS011;26963;42.666;23.366;2022-12-07T10:15:21;46.65;;;30.90;;
40204;SDS011;26963;42.666;23.366;2022-12-07T10:17:47;44.50;;;30.77;;
40204;SDS011;26963;42.666;23.366;2022-12-07T10:20:16;48.40;;;32.13;;
40204;SDS011;26963;42.666;23.366;2022-12-07T10:22:55;54.47;;;31.42;;
40204;SDS011;26963;42.666;23.366;2022-12-07T10:25:21;57.03;;;31.58;;
40204;SDS011;26963;42.666;23.366;2022-12-07T10:27:57;45.97;;;30.92;;
40204;SDS011;26963;42.666;23.366;2022-12-07T10:30:25;42.03;;;29.83;;
40204;SDS011;26963;42.666;23.366;2022-12-07T10:32:50;48.22;;;30.00;;
40204;SDS011;26963;42.666;23.366;2022-12-07T10:37:56;41.53;;;29.35;;
40204;SDS011;26963;42.666;23.366;2022-12-07T10:40:28;44.30;;;28.50;;
40204;SDS011;26963;42.666;23.366;2022-12-07T10:43:02;47.55;;;29.55;;
40204;SDS011;26963;42.666;23.366;2022-12-07T10:45:30;41.57;;;28.57;;
40204;SDS011;26963;42.666;23.366;2022-12-07T10:59:29;41.00;;;26.50;;
40204;SDS011;26963;42.666;23.366;2022-12-07T11:10:26;34.00;;;21.20;;
40204;SDS011;26963;42.666;23.366;2022-12-07T11:24:53;35.65;;;22.05;;
40204;SDS011;26963;42.666;23.366;2022-12-07T11:27:04;31.08;;;21.20;;
40204;SDS011;26963;42.666;23.366;2022-12-07T11:29:46;36.90;;;23.98;;
40204;SDS011;26963;42.666;23.366;2022-12-07T11:37:49;38.08;;;23.77;;
40204;SDS011;26963;42.666;23.366;2022-12-07T11:40:23;32.72;;;19.50;;
40204;SDS011;26963;42.666;23.366;2022-12-07T11:43:02;31.17;;;19.05;;
40204;SDS011;26963;42.666;23.366;2022-12-07T11:45:36;32.28;;;17.63;;
40204;SDS011;26963;42.666;23.366;2022-12-07T11:48:10;30.20;;;15.85;;
40204;SDS011;26963;42.666;23.366;2022-12-07T11:50:47;30.77;;;16.38;;
40204;SDS011;26963;42.666;23.366;2022-12-07T11:53:17;28.08;;;17.83;;
40204;SDS011;26963;42.666;23.366;2022-12-07T11:55:51;29.50;;;17.50;;
40204;SDS011;26963;42.666;23.366;2022-12-07T12:01:50;27.17;;;16.92;;
40204;SDS011;26963;42.666;23.366;2022-12-07T12:03:56;26.20;;;15.43;;
40204;SDS011;26963;42.666;23.366;2022-12-07T12:06:31;24.10;;;14.80;;
40204;SDS011;26963;42.666;23.366;2022-12-07T12:22:43;25.45;;;14.77;;
40204;SDS011;26963;42.666;23.366;2022-12-07T12:25:27;27.52;;;14.60;;
40204;SDS011;26963;42.666;23.366;2022-12-07T12:27:58;27.67;;;16.05;;
40204;SDS011;26963;42.666;23.366;2022-12-07T12:33:27;24.27;;;14.85;;
40204;SDS011;26963;42.666;23.366;2022-12-07T12:39:14;25.65;;;16.35;;
40204;SDS011;26963;42.666;23.366;2022-12-07T12:49:33;25.98;;;17.25;;
40204;SDS011;26963;42.666;23.366;2022-12-07T12:54:57;28.67;;;18.13;;
40204;SDS011;26963;42.666;23.366;2022-12-07T12:57:29;29.10;;;18.23;;
40204;SDS011;26963;42.666;23.366;2022-12-07T13:00:01;30.98;;;17.55;;
40204;SDS011;26963;42.666;23.366;2022-12-07T13:02:50;25.02;;;16.60;;
40204;SDS011;26963;42.666;23.366;2022-12-07T13:05:22;25.30;;;15.95;;
40204;SDS011;26963;42.666;23.366;2022-12-07T13:07:57;23.93;;;15.60;;
40204;SDS011;26963;42.666;23.366;2022-12-07T13:12:56;31.88;;;17.67;;
40204;SDS011;26963;42.666;23.366;2022-12-07T13:15:39;26.70;;;15.35;;
40204;SDS011;26963;42.666;23.366;2022-12-07T13:20:56;22.92;;;15.43;;
40204;SDS011;26963;42.666;23.366;2022-12-07T13:33:57;23.38;;;15.40;;
40204;SDS011;26963;42.666;23.366;2022-12-07T13:36:38;24.98;;;15.18;;
40204;SDS011;26963;42.666;23.366;2022-12-07T13:41:41;23.25;;;14.38;;
40204;SDS011;26963;42.666;23.366;2022-12-07T13:44:11;27.40;;;14.50;;
40204;SDS011;26963;42.666;23.366;2022-12-07T13:46:50;20.63;;;14.20;;
40204;SDS011;26963;42.666;23.366;2022-12-07T13:49:24;27.08;;;15.63;;
40204;SDS011;26963;42.666;23.366;2022-12-07T13:51:52;23.17;;;14.88;;
40204;SDS011;26963;42.666;23.366;2022-12-07T13:54:19;25.38;;;14.80;;
40204;SDS011;26963;42.666;23.366;2022-12-07T13:56:52;22.73;;;15.73;;
40204;SDS011;26963;42.666;23.366;2022-12-07T14:01:46;23.98;;;16.10;;
40204;SDS011;26963;42.666;23.366;2022-12-07T14:06:54;27.27;;;16.02;;
40204;SDS011;26963;42.666;23.366;2022-12-07T14:09:26;28.30;;;16.75;;
40204;SDS011;26963;42.666;23.366;2022-12-07T14:11:55;26.25;;;16.48;;
40204;SDS011;26963;42.666;23.366;2022-12-07T14:14:23;25.33;;;15.85;;
40204;SDS011;26963;42.666;23.366;2022-12-07T14:16:59;25.10;;;16.33;;
40204;SDS011;26963;42.666;23.366;2022-12-07T14:19:56;29.42;;;15.93;;
40204;SDS011;26963;42.666;23.366;2022-12-07T14:24:50;22.35;;;16.08;;
40204;SDS011;26963;42.666;23.366;2022-12-07T14:27:20;26.05;;;16.77;;
40204;SDS011;26963;42.666;23.366;2022-12-07T14:29:48;26.77;;;16.73;;
40204;SDS011;26963;42.666;23.366;2022-12-07T14:32:18;25.92;;;17.35;;
40204;SDS011;26963;42.666;23.366;2022-12-07T14:34:55;23.75;;;16.33;;
40204;SDS011;26963;42.666;23.366;2022-12-07T14:37:25;25.80;;;16.50;;
40204;SDS011;26963;42.666;23.366;2022-12-07T14:39:51;27.70;;;16.60;;
40204;SDS011;26963;42.666;23.366;2022-12-07T14:42:19;25.45;;;16.25;;
40204;SDS011;26963;42.666;23.366;2022-12-07T14:44:45;26.33;;;16.38;;
40204;SDS011;26963;42.666;23.366;2022-12-07T14:47:11;27.88;;;18.13;;
40204;SDS011;26963;42.666;23.366;2022-12-07T14:49:37;32.88;;;18.40;;
40204;SDS011;26963;42.666;23.366;2022-12-07T14:52:03;27.33;;;15.93;;
40204;SDS011;26963;42.666;23.366;2022-12-07T14:54:31;28.85;;;16.98;;
40204;SDS011;26963;42.666;23.366;2022-12-07T14:56:57;32.53;;;19.45;;
40204;SDS011;26963;42.666;23.366;2022-12-07T14:59:23;29.77;;;17.10;;
40204;SDS011;26963;42.666;23.366;2022-12-07T15:01:49;27.08;;;17.83;;
40204;SDS011;26963;42.666;23.366;2022-12-07T15:04:15;31.58;;;17.85;;
40204;SDS011;26963;42.666;23.366;2022-12-07T15:06:41;28.60;;;16.88;;
40204;SDS011;26963;42.666;23.366;2022-12-07T15:09:10;29.60;;;17.98;;
40204;SDS011;26963;42.666;23.366;2022-12-07T15:11:36;34.58;;;16.73;;
40204;SDS011;26963;42.666;23.366;2022-12-07T15:14:02;27.30;;;16.52;;
40204;SDS011;26963;42.666;23.366;2022-12-07T15:16:34;26.63;;;16.27;;
40204;SDS011;26963;42.666;23.366;2022-12-07T15:19:01;28.42;;;17.15;;
40204;SDS011;26963;42.666;23.366;2022-12-07T15:21:26;36.45;;;18.55;;
40204;SDS011;26963;42.666;23.366;2022-12-07T15:23:52;31.40;;;18.40;;
40204;SDS011;26963;42.666;23.366;2022-12-07T15:26:18;26.58;;;17.58;;
40204;SDS011;26963;42.666;23.366;2022-12-07T15:28:44;27.65;;;16.63;;
40204;SDS011;26963;42.666;23.366;2022-12-07T15:31:13;29.38;;;18.08;;
40204;SDS011;26963;42.666;23.366;2022-12-07T15:33:40;35.25;;;19.33;;
40204;SDS011;26963;42.666;23.366;2022-12-07T15:36:06;40.67;;;19.02;;
40204;SDS011;26963;42.666;23.366;2022-12-07T15:38:32;42.78;;;19.80;;
40204;SDS011;26963;42.666;23.366;2022-12-07T15:40:57;36.35;;;18.98;;
40204;SDS011;26963;42.666;23.366;2022-12-07T15:43:23;30.52;;;18.42;;
40204;SDS011;26963;42.666;23.366;2022-12-07T15:46:07;35.60;;;20.85;;
40204;SDS011;26963;42.666;23.366;2022-12-07T15:48:33;55.55;;;21.45;;
40204;SDS011;26963;42.666;23.366;2022-12-07T15:51:02;40.58;;;22.48;;
40204;SDS011;26963;42.666;23.366;2022-12-07T15:53:29;51.28;;;23.40;;
40204;SDS011;26963;42.666;23.366;2022-12-07T15:55:55;40.40;;;22.10;;
40204;SDS011;26963;42.666;23.366;2022-12-07T15:58:20;47.63;;;22.20;;
40204;SDS011;26963;42.666;23.366;2022-12-07T16:00:46;47.03;;;23.50;;
40204;SDS011;26963;42.666;23.366;2022-12-07T16:03:13;48.17;;;25.05;;
40204;SDS011;26963;42.666;23.366;2022-12-07T16:05:39;49.38;;;23.88;;
40204;SDS011;26963;42.666;23.366;2022-12-07T16:08:04;58.92;;;27.98;;
40204;SDS011;26963;42.666;23.366;2022-12-07T16:10:30;66.63;;;29.15;;
40204;SDS011;26963;42.666;23.366;2022-12-07T16:12:56;57.50;;;29.35;;
40204;SDS011;26963;42.666;23.366;2022-12-07T16:15:21;57.90;;;27.52;;
40204;SDS011;26963;42.666;23.366;2022-12-07T16:17:49;59.20;;;27.02;;
40204;SDS011;26963;42.666;23.366;2022-12-07T16:20:15;54.55;;;30.15;;
40204;SDS011;26963;42.666;23.366;2022-12-07T16:22:41;58.00;;;26.80;;
40204;SDS011;26963;42.666;23.366;2022-12-07T16:25:07;58.95;;;27.38;;
40204;SDS011;26963;42.666;23.366;2022-12-07T16:27:33;57.13;;;27.95;;
40204;SDS011;26963;42.666;23.366;2022-12-07T16:29:59;59.55;;;34.17;;